Time;durP1;ratioP1;P1;durP2;ratioP2;P2;SDS_P1;SDS_P2;PMS_P1;PMS_P2;Temp;Humidity;BMP_temperature;BMP_pressure;BME280_temperature;BME280_humidity;BME280_pressure;Samples;Min_cycle;Max_cycle;Signal;HPM_P1;HPM_P2
2022/11/13 00:00:35;;;;;;;15.15;11.23;;;;;;;;;;5053181;28;20289;-66
2022/11/13 00:03:02;;;;;;;11.35;9.95;;;;;;;;;;5053158;28;20206;-67
2022/11/13 00:05:29;;;;;;;14.65;11.57;;;;;;;;;;5053421;28;20214;-66
2022/11/13 00:07:57;;;;;;;17.05;11.93;;;;;;;;;;5052975;28;20720;-66
2022/11/13 00:10:24;;;;;;;21.45;14.63;;;;;;;;;;5052919;28;20202;-66
2022/11/13 00:12:52;;;;;;;15.07;11.15;;;;;;;;;;5053089;28;20201;-66
2022/11/13 00:15:21;;;;;;;13.73;10.90;;;;;;;;;;5052954;28;20237;-66
2022/11/13 00:17:48;;;;;;;16.90;13.07;;;;;;;;;;5053321;28;20572;-66
2022/11/13 00:20:15;;;;;;;13.77;10.93;;;;;;;;;;5052965;28;20573;-67
2022/11/13 00:22:42;;;;;;;12.65;9.93;;;;;;;;;;5053443;28;20201;-66
2022/11/13 00:25:10;;;;;;;13.60;12.15;;;;;;;;;;5053026;28;20229;-66
2022/11/13 00:27:37;;;;;;;15.57;12.60;;;;;;;;;;5057506;28;20201;-66
2022/11/13 00:30:04;;;;;;;13.35;11.05;;;;;;;;;;5057676;28;20660;-66
2022/11/13 00:32:33;;;;;;;14.88;11.23;;;;;;;;;;5057636;28;20212;-67
2022/11/13 00:35:00;;;;;;;13.52;10.50;;;;;;;;;;5057093;28;20225;-65
2022/11/13 00:37:27;;;;;;;15.13;10.18;;;;;;;;;;5057162;28;20240;-66
2022/11/13 00:39:54;;;;;;;12.63;11.30;;;;;;;;;;5057740;28;20202;-67
2022/11/13 00:42:21;;;;;;;12.77;10.82;;;;;;;;;;5057197;28;20220;-67
2022/11/13 00:44:49;;;;;;;13.02;10.75;;;;;;;;;;5058464;28;20223;-66
2022/11/13 00:47:16;;;;;;;12.48;10.60;;;;;;;;;;5058762;28;20285;-67
2022/11/13 00:49:44;;;;;;;13.10;10.52;;;;;;;;;;5057120;28;20208;-66
2022/11/13 00:52:11;;;;;;;17.10;11.90;;;;;;;;;;5056980;28;20201;-66
2022/11/13 00:54:38;;;;;;;13.93;11.38;;;;;;;;;;5057081;28;20233;-67
2022/11/13 00:57:06;;;;;;;13.30;9.85;;;;;;;;;;5056930;28;20685;-67
2022/11/13 00:59:33;;;;;;;22.25;15.38;;;;;;;;;;5057276;28;20308;-65
2022/11/13 01:02:00;;;;;;;12.50;11.20;;;;;;;;;;5056729;28;20689;-66
2022/11/13 01:04:28;;;;;;;11.80;9.75;;;;;;;;;;5056570;28;20224;-66
2022/11/13 01:06:57;;;;;;;12.27;10.32;;;;;;;;;;5057633;28;20198;-67
2022/11/13 01:09:24;;;;;;;14.15;11.32;;;;;;;;;;5057421;28;20206;-68
2022/11/13 01:11:51;;;;;;;14.32;9.55;;;;;;;;;;5057407;28;20297;-67
2022/11/13 01:14:18;;;;;;;10.70;8.88;;;;;;;;;;5057637;28;20222;-66
2022/11/13 01:16:45;;;;;;;11.35;9.20;;;;;;;;;;5057459;28;20201;-66
2022/11/13 01:19:12;;;;;;;15.55;9.73;;;;;;;;;;5057664;28;20209;-68
2022/11/13 01:21:40;;;;;;;14.32;10.63;;;;;;;;;;5057321;28;20201;-65
2022/11/13 01:24:08;;;;;;;12.05;9.93;;;;;;;;;;5056939;28;20204;-65
2022/11/13 01:26:35;;;;;;;12.95;11.23;;;;;;;;;;5056813;28;20221;-66
2022/11/13 01:29:02;;;;;;;10.75;9.63;;;;;;;;;;5056955;28;20295;-66
2022/11/13 01:31:31;;;;;;;14.18;11.35;;;;;;;;;;5056866;28;20210;-66
2022/11/13 01:33:58;;;;;;;15.10;10.18;;;;;;;;;;5056629;28;20212;-66
2022/11/13 01:36:26;;;;;;;12.25;10.75;;;;;;;;;;5055919;28;20204;-66
2022/11/13 01:38:53;;;;;;;12.35;10.32;;;;;;;;;;5055398;28;20205;-66
2022/11/13 01:41:25;;;;;;;12.00;10.52;;;;;;;;;;5055940;28;20220;-65
2022/11/13 01:43:53;;;;;;;14.43;10.80;;;;;;;;;;5055795;28;20189;-66
2022/11/13 01:46:23;;;;;;;14.38;11.43;;;;;;;;;;5056606;28;20305;-65
2022/11/13 01:48:52;;;;;;;11.60;9.93;;;;;;;;;;5057126;28;20197;-66
2022/11/13 01:51:23;;;;;;;11.07;9.80;;;;;;;;;;5057204;28;20198;-66
2022/11/13 01:53:50;;;;;;;17.42;11.85;;;;;;;;;;5056779;28;20186;-65
2022/11/13 01:56:18;;;;;;;13.52;10.98;;;;;;;;;;5056582;28;20248;-67
2022/11/13 01:58:49;;;;;;;13.70;11.60;;;;;;;;;;5056128;28;20208;-65
2022/11/13 02:01:16;;;;;;;13.90;12.40;;;;;;;;;;5056401;28;20233;-67
2022/11/13 02:03:43;;;;;;;17.40;13.32;;;;;;;;;;5055899;28;20208;-66
2022/11/13 02:06:11;;;;;;;15.77;12.63;;;;;;;;;;5055963;28;20222;-66
2022/11/13 02:08:38;;;;;;;15.13;11.07;;;;;;;;;;5056193;28;20198;-66
2022/11/13 02:11:05;;;;;;;15.25;13.10;;;;;;;;;;5056504;28;20205;-67
2022/11/13 02:13:32;;;;;;;14.52;13.02;;;;;;;;;;5057554;28;20208;-66
2022/11/13 02:16:01;;;;;;;14.98;12.85;;;;;;;;;;5056943;28;20226;-66
2022/11/13 02:18:30;;;;;;;14.10;12.52;;;;;;;;;;5056592;28;20201;-66
2022/11/13 02:21:01;;;;;;;19.70;14.68;;;;;;;;;;5056538;28;20202;-66
2022/11/13 02:23:31;;;;;;;14.98;12.63;;;;;;;;;;5055867;28;20655;-66
2022/11/13 02:26:00;;;;;;;15.15;12.32;;;;;;;;;;5055743;28;20236;-63
2022/11/13 02:28:27;;;;;;;15.77;13.00;;;;;;;;;;5056177;28;20220;-67
2022/11/13 02:30:54;;;;;;;18.27;12.65;;;;;;;;;;5056697;28;20239;-66
2022/11/13 02:33:23;;;;;;;15.35;12.30;;;;;;;;;;5055866;28;20202;-66
2022/11/13 02:35:50;;;;;;;16.42;13.27;;;;;;;;;;5055479;28;20222;-66
2022/11/13 02:38:17;;;;;;;15.02;12.85;;;;;;;;;;5055734;28;20197;-66
2022/11/13 02:40:45;;;;;;;14.02;12.02;;;;;;;;;;5056100;28;20201;-67
2022/11/13 02:43:13;;;;;;;16.00;13.13;;;;;;;;;;5055051;28;20674;-67
2022/11/13 02:45:40;;;;;;;15.50;12.93;;;;;;;;;;5054522;28;20231;-67
2022/11/13 02:48:07;;;;;;;15.02;12.90;;;;;;;;;;5054822;28;20198;-67
2022/11/13 02:50:35;;;;;;;14.35;12.30;;;;;;;;;;5053450;28;20205;-67
2022/11/13 02:53:02;;;;;;;16.13;12.82;;;;;;;;;;5054452;28;20289;-66
2022/11/13 02:55:30;;;;;;;15.63;12.68;;;;;;;;;;5054415;28;20222;-65
2022/11/13 02:57:57;;;;;;;15.57;13.00;;;;;;;;;;5054603;28;20203;-66
2022/11/13 03:00:25;;;;;;;14.50;12.63;;;;;;;;;;5054684;28;20209;-67
2022/11/13 03:02:52;;;;;;;16.40;11.88;;;;;;;;;;5054611;28;20288;-66
2022/11/13 03:05:20;;;;;;;14.90;13.30;;;;;;;;;;5054736;28;20306;-66
2022/11/13 03:07:47;;;;;;;18.13;13.07;;;;;;;;;;5054687;28;20227;-65
2022/11/13 03:10:14;;;;;;;20.50;14.52;;;;;;;;;;5054313;28;20301;-66
2022/11/13 03:12:41;;;;;;;16.52;13.23;;;;;;;;;;5054409;28;20209;-65
2022/11/13 03:15:09;;;;;;;18.45;13.68;;;;;;;;;;5054362;28;20228;-65
2022/11/13 03:17:38;;;;;;;20.83;14.82;;;;;;;;;;5054255;28;20289;-65
2022/11/13 03:20:06;;;;;;;17.15;12.35;;;;;;;;;;5053904;28;20198;-67
2022/11/13 03:22:33;;;;;;;19.58;13.70;;;;;;;;;;5053989;28;20634;-65
2022/11/13 03:25:00;;;;;;;14.18;12.38;;;;;;;;;;5053487;28;20225;-67
2022/11/13 03:27:28;;;;;;;16.25;11.93;;;;;;;;;;5053675;28;20206;-65
2022/11/13 03:29:55;;;;;;;15.05;12.00;;;;;;;;;;5053840;28;20211;-65
2022/11/13 03:32:22;;;;;;;17.02;12.63;;;;;;;;;;5053739;28;20205;-65
2022/11/13 03:34:50;;;;;;;18.10;12.88;;;;;;;;;;5053596;28;20221;-67
2022/11/13 03:37:17;;;;;;;16.63;14.20;;;;;;;;;;5053645;28;20204;-66
2022/11/13 03:39:44;;;;;;;14.75;12.55;;;;;;;;;;5053790;28;20289;-66
2022/11/13 03:42:12;;;;;;;15.05;11.73;;;;;;;;;;5053674;28;20292;-66
2022/11/13 03:44:39;;;;;;;15.27;12.15;;;;;;;;;;5053367;28;20227;-67
2022/11/13 03:47:06;;;;;;;14.73;12.55;;;;;;;;;;5053634;28;20557;-67
2022/11/13 03:49:33;;;;;;;17.40;12.48;;;;;;;;;;5053605;28;20205;-66
2022/11/13 03:52:01;;;;;;;18.58;12.98;;;;;;;;;;5053105;28;20665;-67
2022/11/13 03:54:28;;;;;;;15.07;12.95;;;;;;;;;;5052902;28;20709;-65
2022/11/13 03:56:56;;;;;;;17.00;13.07;;;;;;;;;;5053091;28;20234;-66
2022/11/13 03:59:23;;;;;;;17.60;13.38;;;;;;;;;;5053179;28;20204;-67
2022/11/13 04:01:50;;;;;;;15.70;13.50;;;;;;;;;;5052593;28;20210;-67
2022/11/13 04:04:17;;;;;;;14.15;12.65;;;;;;;;;;5053592;28;20198;-67
2022/11/13 04:06:44;;;;;;;15.20;12.95;;;;;;;;;;5052898;28;20556;-66
2022/11/13 04:10:34;;;;;;;16.50;13.83;;;;;;;;;;5109821;27;1303532;-66
2022/11/13 04:13:01;;;;;;;16.52;13.70;;;;;;;;;;5131822;28;20497;-67
2022/11/13 04:15:28;;;;;;;17.00;13.85;;;;;;;;;;5132014;28;20215;-66
2022/11/13 04:17:55;;;;;;;16.98;13.57;;;;;;;;;;5131833;28;20278;-67
2022/11/13 04:20:23;;;;;;;16.50;13.95;;;;;;;;;;5131811;28;20619;-67
2022/11/13 04:22:50;;;;;;;18.85;13.80;;;;;;;;;;5121040;22;20228;-65
2022/11/13 04:25:17;;;;;;;19.50;13.60;;;;;;;;;;5091123;28;20203;-64
2022/11/13 04:27:46;;;;;;;17.52;13.63;;;;;;;;;;5090638;28;20200;-65
2022/11/13 04:30:13;;;;;;;18.38;13.20;;;;;;;;;;5090443;28;20216;-66
2022/11/13 04:32:40;;;;;;;15.27;12.27;;;;;;;;;;5090580;28;20220;-66
2022/11/13 04:35:07;;;;;;;17.17;12.93;;;;;;;;;;5090415;28;20200;-66
2022/11/13 04:37:35;;;;;;;15.63;13.82;;;;;;;;;;5092358;28;20215;-65
2022/11/13 04:40:02;;;;;;;15.57;13.85;;;;;;;;;;5091874;28;20573;-65
2022/11/13 04:45:15;;;;;;;15.93;12.70;;;;;;;;;;5092069;28;20175;-66
2022/11/13 04:47:42;;;;;;;18.95;13.77;;;;;;;;;;5092713;28;20205;-66
2022/11/13 04:50:10;;;;;;;18.73;14.15;;;;;;;;;;5092384;28;20591;-66
2022/11/13 04:52:37;;;;;;;18.25;14.15;;;;;;;;;;5092341;28;20224;-65
2022/11/13 04:55:04;;;;;;;17.15;13.25;;;;;;;;;;5091787;28;20196;-66
2022/11/13 04:57:31;;;;;;;17.90;14.80;;;;;;;;;;5090817;28;20719;-66
2022/11/13 04:59:59;;;;;;;19.13;14.57;;;;;;;;;;5091804;28;20203;-66
2022/11/13 05:02:27;;;;;;;16.05;13.90;;;;;;;;;;5091382;28;20223;-65
2022/11/13 05:04:54;;;;;;;19.00;14.25;;;;;;;;;;5091476;28;20196;-65
2022/11/13 05:07:21;;;;;;;16.92;13.32;;;;;;;;;;5091065;28;20208;-65
2022/11/13 05:09:48;;;;;;;15.75;12.95;;;;;;;;;;5091386;28;20216;-65
2022/11/13 05:12:15;;;;;;;15.73;13.38;;;;;;;;;;5090249;28;20231;-65
2022/11/13 05:14:43;;;;;;;15.65;13.75;;;;;;;;;;5090966;28;20232;-66
2022/11/13 05:17:11;;;;;;;16.23;13.90;;;;;;;;;;5090563;28;20204;-64
2022/11/13 05:19:39;;;;;;;18.17;13.95;;;;;;;;;;5090052;28;20571;-64
2022/11/13 05:22:07;;;;;;;15.98;13.18;;;;;;;;;;5075593;28;20607;-64
2022/11/13 05:24:34;;;;;;;17.42;15.20;;;;;;;;;;5076841;28;20201;-65
2022/11/13 05:27:01;;;;;;;18.13;13.30;;;;;;;;;;5076585;28;20223;-64
2022/11/13 05:29:28;;;;;;;18.73;13.82;;;;;;;;;;5076847;28;20221;-64
2022/11/13 05:31:55;;;;;;;16.48;13.98;;;;;;;;;;5077902;28;20320;-64
2022/11/13 05:34:22;;;;;;;16.98;14.50;;;;;;;;;;5077853;28;20215;-65
2022/11/13 05:36:51;;;;;;;16.10;13.25;;;;;;;;;;5076516;28;20201;-65
2022/11/13 05:39:18;;;;;;;14.95;11.60;;;;;;;;;;5076887;28;20203;-66
2022/11/13 05:41:45;;;;;;;14.50;12.45;;;;;;;;;;5076170;28;20723;-65
2022/11/13 05:44:12;;;;;;;17.08;12.30;;;;;;;;;;5075872;28;20205;-66
2022/11/13 05:46:39;;;;;;;20.02;14.73;;;;;;;;;;5075800;28;20616;-64
2022/11/13 05:49:06;;;;;;;17.38;13.15;;;;;;;;;;5075557;28;20217;-64
2022/11/13 05:51:34;;;;;;;17.55;14.02;;;;;;;;;;5075255;28;20229;-65
2022/11/13 05:54:02;;;;;;;15.15;13.23;;;;;;;;;;5075283;28;20219;-64
2022/11/13 05:56:30;;;;;;;15.68;12.52;;;;;;;;;;5075308;28;20200;-65
2022/11/13 05:58:58;;;;;;;16.33;13.23;;;;;;;;;;5075546;28;20197;-65
2022/11/13 06:01:27;;;;;;;15.05;13.20;;;;;;;;;;5074906;28;20708;-65
2022/11/13 06:03:55;;;;;;;16.77;15.00;;;;;;;;;;5075134;28;20200;-65
2022/11/13 06:06:23;;;;;;;17.42;13.95;;;;;;;;;;5075219;28;20201;-65
2022/11/13 06:08:51;;;;;;;15.70;13.25;;;;;;;;;;5075160;28;20644;-65
2022/11/13 06:11:20;;;;;;;15.65;11.82;;;;;;;;;;5074516;28;20221;-65
2022/11/13 06:13:48;;;;;;;17.60;12.48;;;;;;;;;;5074619;28;20694;-65
2022/11/13 06:16:15;;;;;;;16.58;12.82;;;;;;;;;;5074591;28;20566;-65
2022/11/13 06:18:43;;;;;;;16.17;13.32;;;;;;;;;;5074759;28;20211;-65
2022/11/13 06:21:12;;;;;;;15.90;14.02;;;;;;;;;;5074240;28;20826;-65
2022/11/13 06:23:40;;;;;;;13.45;12.05;;;;;;;;;;5074774;28;20196;-65
2022/11/13 06:26:08;;;;;;;20.67;13.73;;;;;;;;;;5074346;28;20673;-65
2022/11/13 06:28:36;;;;;;;18.60;13.30;;;;;;;;;;5074578;28;20201;-65
2022/11/13 06:31:04;;;;;;;17.17;13.60;;;;;;;;;;5075181;28;20700;-65
2022/11/13 06:33:31;;;;;;;19.88;14.15;;;;;;;;;;5074426;28;20201;-64
2022/11/13 06:36:01;;;;;;;18.63;14.13;;;;;;;;;;5075667;28;20268;-65
2022/11/13 06:38:30;;;;;;;15.77;13.32;;;;;;;;;;5076842;28;20227;-65
2022/11/13 06:40:57;;;;;;;21.70;13.85;;;;;;;;;;5076571;28;20233;-65
2022/11/13 06:43:24;;;;;;;18.90;12.88;;;;;;;;;;5076733;28;20260;-65
2022/11/13 06:45:53;;;;;;;19.10;13.68;;;;;;;;;;5076259;28;20223;-65
2022/11/13 06:48:20;;;;;;;18.15;14.20;;;;;;;;;;5077150;28;20201;-66
2022/11/13 06:50:47;;;;;;;16.73;14.75;;;;;;;;;;5076312;28;20220;-65
2022/11/13 06:53:14;;;;;;;19.15;15.18;;;;;;;;;;5075918;28;20207;-65
2022/11/13 06:55:44;;;;;;;20.60;15.10;;;;;;;;;;5076249;28;20197;-65
2022/11/13 06:58:12;;;;;;;21.05;15.60;;;;;;;;;;5076153;28;20568;-64
2022/11/13 07:00:39;;;;;;;20.58;16.15;;;;;;;;;;5076261;28;20250;-65
2022/11/13 07:03:07;;;;;;;18.13;15.07;;;;;;;;;;5075033;28;20220;-65
2022/11/13 07:05:37;;;;;;;16.42;14.50;;;;;;;;;;5074493;28;20570;-65
2022/11/13 07:08:04;;;;;;;19.83;15.45;;;;;;;;;;5074224;28;20209;-65
2022/11/13 07:10:31;;;;;;;21.80;15.82;;;;;;;;;;5073822;28;20220;-65
2022/11/13 07:12:59;;;;;;;22.27;16.10;;;;;;;;;;5075879;28;20221;-65
2022/11/13 07:15:26;;;;;;;20.90;15.75;;;;;;;;;;5075535;28;20209;-66
2022/11/13 07:17:53;;;;;;;18.30;15.48;;;;;;;;;;5075943;28;20234;-66
2022/11/13 07:20:22;;;;;;;21.38;16.60;;;;;;;;;;5073780;28;20351;-66
2022/11/13 07:22:49;;;;;;;21.77;15.35;;;;;;;;;;5074581;28;20225;-66
2022/11/13 07:25:17;;;;;;;19.92;15.15;;;;;;;;;;5074888;28;20201;-66
2022/11/13 07:27:45;;;;;;;18.98;14.68;;;;;;;;;;5075342;28;20240;-65
2022/11/13 07:30:13;;;;;;;16.95;14.40;;;;;;;;;;5075422;28;20225;-65
2022/11/13 07:32:40;;;;;;;20.33;15.40;;;;;;;;;;5075275;28;20756;-66
2022/11/13 07:35:08;;;;;;;18.88;15.35;;;;;;;;;;5075405;28;20262;-65
2022/11/13 07:37:36;;;;;;;20.38;15.68;;;;;;;;;;5075022;28;20586;-68
2022/11/13 07:40:04;;;;;;;19.42;14.85;;;;;;;;;;5075458;28;20623;-66
2022/11/13 07:42:31;;;;;;;18.83;15.90;;;;;;;;;;5075285;28;20227;-66
2022/11/13 07:44:58;;;;;;;19.05;16.30;;;;;;;;;;5075456;28;20205;-66
2022/11/13 07:47:25;;;;;;;22.33;15.85;;;;;;;;;;5075103;28;20200;-65
2022/11/13 07:49:53;;;;;;;20.17;14.75;;;;;;;;;;5074673;28;20217;-65
2022/11/13 07:52:20;;;;;;;18.63;14.80;;;;;;;;;;5074984;28;20740;-66
2022/11/13 07:54:48;;;;;;;19.60;14.55;;;;;;;;;;5073984;28;20200;-65
2022/11/13 07:57:15;;;;;;;15.65;13.98;;;;;;;;;;5074339;28;20200;-65
2022/11/13 07:59:43;;;;;;;18.33;13.82;;;;;;;;;;5075133;28;20223;-66
2022/11/13 08:02:14;;;;;;;17.92;14.70;;;;;;;;;;5075804;28;20242;-64
2022/11/13 08:04:41;;;;;;;17.45;15.35;;;;;;;;;;5074524;28;20616;-66
2022/11/13 08:07:08;;;;;;;19.02;16.00;;;;;;;;;;5074605;28;20197;-66
2022/11/13 08:09:36;;;;;;;18.65;15.75;;;;;;;;;;5074893;28;20260;-67
2022/11/13 08:12:04;;;;;;;17.83;15.10;;;;;;;;;;5074635;28;20355;-66
2022/11/13 08:14:32;;;;;;;19.58;15.88;;;;;;;;;;5074951;28;20665;-67
2022/11/13 08:16:59;;;;;;;19.83;14.20;;;;;;;;;;5075349;28;20594;-66
2022/11/13 08:19:26;;;;;;;18.10;14.77;;;;;;;;;;5074652;28;20636;-66
2022/11/13 08:21:53;;;;;;;17.38;15.45;;;;;;;;;;5074569;28;20708;-67
2022/11/13 08:24:20;;;;;;;17.92;14.85;;;;;;;;;;5075082;28;20300;-68
2022/11/13 08:26:47;;;;;;;21.90;16.67;;;;;;;;;;5075928;28;20246;-66
2022/11/13 08:29:16;;;;;;;18.23;15.65;;;;;;;;;;5076208;28;20295;-66
2022/11/13 08:31:43;;;;;;;18.05;15.98;;;;;;;;;;5075291;28;20243;-67
2022/11/13 08:34:10;;;;;;;16.40;14.70;;;;;;;;;;5076046;28;20201;-67
2022/11/13 08:36:37;;;;;;;19.85;16.60;;;;;;;;;;5074967;28;20228;-67
2022/11/13 08:39:05;;;;;;;16.27;14.20;;;;;;;;;;5074833;28;20231;-65
2022/11/13 08:41:32;;;;;;;20.90;16.05;;;;;;;;;;5074939;28;20583;-67
2022/11/13 08:43:59;;;;;;;20.52;16.48;;;;;;;;;;5075144;28;20665;-67
2022/11/13 08:46:28;;;;;;;19.40;15.10;;;;;;;;;;5074249;28;20668;-66
2022/11/13 08:48:55;;;;;;;21.83;17.70;;;;;;;;;;5074829;28;20301;-66
2022/11/13 08:51:22;;;;;;;20.55;15.88;;;;;;;;;;5074882;28;20251;-67
2022/11/13 08:53:49;;;;;;;20.38;15.20;;;;;;;;;;5074954;28;20268;-66
2022/11/13 08:56:16;;;;;;;18.67;15.75;;;;;;;;;;5076498;28;20248;-67
2022/11/13 08:58:44;;;;;;;19.85;14.73;;;;;;;;;;5078885;28;20288;-67
2022/11/13 09:01:11;;;;;;;20.48;16.88;;;;;;;;;;5078726;28;20213;-66
2022/11/13 09:03:39;;;;;;;20.67;15.75;;;;;;;;;;5078327;28;20196;-67
2022/11/13 09:06:07;;;;;;;22.48;16.98;;;;;;;;;;5078479;28;20201;-66
2022/11/13 09:08:34;;;;;;;18.60;15.45;;;;;;;;;;5079360;28;20205;-67
2022/11/13 09:11:05;;;;;;;18.50;14.50;;;;;;;;;;5078083;28;20252;-67
2022/11/13 09:13:33;;;;;;;19.27;14.48;;;;;;;;;;5078066;28;20661;-67
2022/11/13 09:16:00;;;;;;;17.98;15.25;;;;;;;;;;5077423;28;20292;-66
2022/11/13 09:18:27;;;;;;;19.83;15.75;;;;;;;;;;5077797;28;20201;-67
2022/11/13 09:20:56;;;;;;;19.75;15.15;;;;;;;;;;5076633;28;20291;-67
2022/11/13 09:23:23;;;;;;;18.08;13.65;;;;;;;;;;5077323;28;20696;-66
2022/11/13 09:25:51;;;;;;;16.90;14.15;;;;;;;;;;5077239;28;20287;-66
2022/11/13 09:28:18;;;;;;;18.40;15.35;;;;;;;;;;5076915;28;20284;-67
2022/11/13 09:30:45;;;;;;;18.48;14.00;;;;;;;;;;5076459;28;20788;-67
2022/11/13 09:33:14;;;;;;;19.48;14.55;;;;;;;;;;5076837;28;20228;-65
2022/11/13 09:35:42;;;;;;;19.10;14.55;;;;;;;;;;5077305;28;20231;-67
2022/11/13 09:38:11;;;;;;;18.30;14.85;;;;;;;;;;5078218;28;20258;-67
2022/11/13 09:40:42;;;;;;;16.75;13.40;;;;;;;;;;5077303;28;20224;-66
2022/11/13 09:43:14;;;;;;;17.58;14.45;;;;;;;;;;5076808;28;20221;-67
2022/11/13 09:45:41;;;;;;;16.75;14.25;;;;;;;;;;5077315;28;20186;-65
2022/11/13 09:48:13;;;;;;;16.30;14.00;;;;;;;;;;5076698;28;20201;-67
2022/11/13 09:50:41;;;;;;;16.70;14.95;;;;;;;;;;5076322;28;20212;-66
2022/11/13 09:53:08;;;;;;;21.10;15.27;;;;;;;;;;5076490;28;20225;-65
2022/11/13 09:55:41;;;;;;;18.48;15.25;;;;;;;;;;5077082;28;20268;-68
2022/11/13 09:58:13;;;;;;;17.90;15.40;;;;;;;;;;5077258;28;20273;-65
2022/11/13 10:00:40;;;;;;;18.63;16.38;;;;;;;;;;5077485;28;20613;-66
2022/11/13 10:03:18;;;;;;;20.58;16.77;;;;;;;;;;5076527;28;20285;-65
2022/11/13 10:05:50;;;;;;;18.65;15.70;;;;;;;;;;5076748;28;20193;-67
2022/11/13 10:08:20;;;;;;;16.65;14.88;;;;;;;;;;5076742;28;20189;-68
2022/11/13 10:10:53;;;;;;;21.88;17.92;;;;;;;;;;5076235;28;20320;-65
2022/11/13 10:13:21;;;;;;;23.50;17.67;;;;;;;;;;5077515;28;20185;-68
2022/11/13 10:15:51;;;;;;;22.02;16.58;;;;;;;;;;5077385;28;20211;-66
2022/11/13 10:18:20;;;;;;;23.10;18.67;;;;;;;;;;5076346;28;20624;-67
2022/11/13 10:20:50;;;;;;;25.20;17.77;;;;;;;;;;5076418;28;20201;-66
2022/11/13 10:23:19;;;;;;;27.67;20.45;;;;;;;;;;5092174;22;20229;-65
2022/11/13 10:25:46;;;;;;;26.40;20.20;;;;;;;;;;5075569;28;20268;-65
2022/11/13 10:28:16;;;;;;;25.77;18.38;;;;;;;;;;5074804;28;20207;-66
2022/11/13 10:30:44;;;;;;;27.00;18.77;;;;;;;;;;5074338;28;20711;-65
2022/11/13 10:33:15;;;;;;;27.98;19.85;;;;;;;;;;5074736;28;20232;-65
2022/11/13 10:35:48;;;;;;;24.80;17.40;;;;;;;;;;5074438;28;20259;-65
2022/11/13 10:38:19;;;;;;;25.90;19.75;;;;;;;;;;5074778;28;20203;-65
2022/11/13 10:40:47;;;;;;;22.95;18.02;;;;;;;;;;5074527;28;20191;-63
2022/11/13 10:43:18;;;;;;;25.02;17.63;;;;;;;;;;5074943;28;20278;-65
2022/11/13 10:45:54;;;;;;;20.67;16.77;;;;;;;;;;5074039;28;20185;-65
2022/11/13 10:48:22;;;;;;;21.85;17.52;;;;;;;;;;5073844;28;20593;-65
2022/11/13 10:50:56;;;;;;;21.42;17.48;;;;;;;;;;5074370;28;20221;-65
2022/11/13 10:53:25;;;;;;;19.85;16.10;;;;;;;;;;5074296;28;20220;-65
2022/11/13 10:55:54;;;;;;;21.30;15.80;;;;;;;;;;5074842;28;20201;-65
2022/11/13 10:58:23;;;;;;;23.67;16.90;;;;;;;;;;5074133;28;20215;-65
2022/11/13 11:00:51;;;;;;;22.92;17.77;;;;;;;;;;5074633;28;20197;-67
2022/11/13 11:03:19;;;;;;;24.73;18.55;;;;;;;;;;5074453;28;20224;-66
2022/11/13 11:05:53;;;;;;;25.13;18.40;;;;;;;;;;5074401;28;20197;-66
2022/11/13 11:08:22;;;;;;;25.42;17.98;;;;;;;;;;5074693;28;20558;-65
2022/11/13 11:13:41;;;;;;;28.33;19.63;;;;;;;;;;5078587;28;20216;-62
2022/11/13 11:16:10;;;;;;;26.92;19.00;;;;;;;;;;5074487;28;20661;-64
2022/11/13 11:18:39;;;;;;;27.38;18.90;;;;;;;;;;5073744;28;20664;-62
2022/11/13 11:21:08;;;;;;;26.45;19.65;;;;;;;;;;5073708;28;20201;-63
2022/11/13 11:23:40;;;;;;;25.38;17.75;;;;;;;;;;5073319;28;20720;-64
2022/11/13 11:26:12;;;;;;;26.95;20.63;;;;;;;;;;5073731;28;20190;-64
2022/11/13 11:28:42;;;;;;;24.80;18.40;;;;;;;;;;5075502;28;20196;-64
2022/11/13 11:31:12;;;;;;;28.02;19.70;;;;;;;;;;5073704;28;20206;-65
2022/11/13 11:33:47;;;;;;;26.13;17.38;;;;;;;;;;5074013;28;20221;-64
2022/11/13 11:36:18;;;;;;;24.23;17.42;;;;;;;;;;5073868;28;20189;-65
2022/11/13 11:38:49;;;;;;;26.08;18.33;;;;;;;;;;5073737;28;20197;-65
2022/11/13 11:41:18;;;;;;;29.33;20.58;;;;;;;;;;5073905;28;20186;-65
2022/11/13 11:43:48;;;;;;;26.17;18.70;;;;;;;;;;5073208;28;20589;-64
2022/11/13 11:46:20;;;;;;;26.52;17.92;;;;;;;;;;5073093;28;20665;-65
2022/11/13 11:48:47;;;;;;;28.63;20.73;;;;;;;;;;5073153;28;20185;-64
2022/11/13 11:51:19;;;;;;;30.10;19.25;;;;;;;;;;5072790;28;20726;-63
2022/11/13 11:53:50;;;;;;;30.27;21.50;;;;;;;;;;5072823;28;20757;-64
2022/11/13 11:56:22;;;;;;;30.45;19.30;;;;;;;;;;5072660;28;20669;-64
2022/11/13 11:59:03;;;;;;;28.75;19.85;;;;;;;;;;5073041;28;20604;-64
2022/11/13 12:01:38;;;;;;;30.63;19.63;;;;;;;;;;5073450;28;20186;-63
2022/11/13 12:04:09;;;;;;;30.17;20.15;;;;;;;;;;5072824;28;20637;-62
2022/11/13 12:06:41;;;;;;;34.35;21.20;;;;;;;;;;5072941;28;20663;-65
2022/11/13 12:09:12;;;;;;;36.85;20.77;;;;;;;;;;5072906;28;20655;-65
2022/11/13 12:11:43;;;;;;;33.90;21.10;;;;;;;;;;5072538;28;20227;-64
2022/11/13 12:14:14;;;;;;;29.10;20.50;;;;;;;;;;5072993;28;20187;-65
2022/11/13 12:16:49;;;;;;;26.15;19.20;;;;;;;;;;5073196;28;20193;-64
2022/11/13 12:19:22;;;;;;;31.45;20.88;;;;;;;;;;5073447;28;20292;-64
2022/11/13 12:21:53;;;;;;;26.60;20.17;;;;;;;;;;5072451;28;20652;-65
2022/11/13 12:24:35;;;;;;;31.77;18.95;;;;;;;;;;5072572;28;20295;-64
2022/11/13 12:27:08;;;;;;;33.00;23.05;;;;;;;;;;5073262;28;20209;-64
2022/11/13 12:29:41;;;;;;;36.85;25.40;;;;;;;;;;5073772;28;20287;-64
2022/11/13 12:32:19;;;;;;;44.15;29.55;;;;;;;;;;5076620;28;20229;-65
2022/11/13 12:34:49;;;;;;;45.70;32.13;;;;;;;;;;5077621;28;20199;-65
2022/11/13 12:37:22;;;;;;;49.83;34.03;;;;;;;;;;5076731;28;20197;-65
2022/11/13 12:39:51;;;;;;;49.83;34.13;;;;;;;;;;5076370;28;20637;-65
2022/11/13 12:42:21;;;;;;;49.20;34.42;;;;;;;;;;5076506;28;20225;-65
2022/11/13 12:44:53;;;;;;;50.30;34.20;;;;;;;;;;5076395;28;20201;-64
2022/11/13 12:47:21;;;;;;;48.25;32.33;;;;;;;;;;5076449;28;20191;-65
2022/11/13 12:49:58;;;;;;;42.53;28.25;;;;;;;;;;5076029;28;20610;-65
2022/11/13 12:52:26;;;;;;;46.78;31.73;;;;;;;;;;5075772;28;20236;-64
2022/11/13 12:55:03;;;;;;;51.53;33.63;;;;;;;;;;5076096;28;20207;-63
2022/11/13 12:57:32;;;;;;;50.42;34.55;;;;;;;;;;5076329;28;20185;-64
2022/11/13 13:00:11;;;;;;;47.55;33.45;;;;;;;;;;5076353;28;20201;-65
2022/11/13 13:02:47;;;;;;;51.30;35.28;;;;;;;;;;5075988;28;20223;-64
2022/11/13 13:05:19;;;;;;;53.35;35.88;;;;;;;;;;5075672;28;20603;-64
2022/11/13 13:07:57;;;;;;;58.60;41.65;;;;;;;;;;5075878;28;20192;-63
2022/11/13 13:10:27;;;;;;;47.85;33.10;;;;;;;;;;5075668;28;20683;-64
2022/11/13 13:12:58;;;;;;;45.92;31.40;;;;;;;;;;5075866;28;20229;-64
2022/11/13 13:15:29;;;;;;;41.58;27.98;;;;;;;;;;5075997;28;20192;-64
2022/11/13 13:18:04;;;;;;;35.65;26.52;;;;;;;;;;5075929;28;20196;-63
2022/11/13 13:20:34;;;;;;;38.75;26.83;;;;;;;;;;5075815;28;20251;-64
2022/11/13 13:23:02;;;;;;;40.55;29.20;;;;;;;;;;5075457;28;20229;-63
2022/11/13 13:25:31;;;;;;;31.02;23.83;;;;;;;;;;5076036;28;20227;-66
2022/11/13 13:27:59;;;;;;;41.47;26.17;;;;;;;;;;5075577;28;20669;-65
2022/11/13 13:30:30;;;;;;;34.60;23.92;;;;;;;;;;5075760;28;20236;-65
2022/11/13 13:33:04;;;;;;;35.90;25.17;;;;;;;;;;5075626;28;20707;-66
2022/11/13 13:35:41;;;;;;;34.70;23.83;;;;;;;;;;5075736;28;20191;-66
2022/11/13 13:38:19;;;;;;;36.35;24.00;;;;;;;;;;5076153;28;20191;-66
2022/11/13 13:40:52;;;;;;;34.80;22.85;;;;;;;;;;5075685;28;20221;-63
2022/11/13 13:43:28;;;;;;;36.13;22.55;;;;;;;;;;5075475;28;20312;-64
2022/11/13 13:45:57;;;;;;;31.92;22.33;;;;;;;;;;5075260;28;20637;-64
2022/11/13 13:48:27;;;;;;;29.48;20.52;;;;;;;;;;5075125;28;20244;-63
2022/11/13 13:50:56;;;;;;;33.28;21.27;;;;;;;;;;5075485;28;20201;-66
2022/11/13 13:53:24;;;;;;;31.17;20.95;;;;;;;;;;5079257;28;20260;-63
2022/11/13 13:55:53;;;;;;;38.42;22.13;;;;;;;;;;5075592;28;20214;-64
2022/11/13 13:58:22;;;;;;;34.95;21.60;;;;;;;;;;5075709;28;20204;-62
2022/11/13 14:00:55;;;;;;;34.45;23.35;;;;;;;;;;5075764;28;20244;-63
2022/11/13 14:03:24;;;;;;;39.30;24.15;;;;;;;;;;5075787;28;20224;-64
2022/11/13 14:05:52;;;;;;;36.47;23.58;;;;;;;;;;5075373;28;20292;-65
2022/11/13 14:08:23;;;;;;;39.83;23.67;;;;;;;;;;5075346;28;20239;-64
2022/11/13 14:10:50;;;;;;;35.17;22.08;;;;;;;;;;5074850;28;20634;-65
2022/11/13 14:13:30;;;;;;;35.85;23.15;;;;;;;;;;5075792;28;20252;-64
2022/11/13 14:16:00;;;;;;;34.13;22.73;;;;;;;;;;5074055;28;20227;-65
2022/11/13 14:18:28;;;;;;;37.00;23.52;;;;;;;;;;5074961;28;20201;-64
2022/11/13 14:20:56;;;;;;;35.05;23.58;;;;;;;;;;5075909;28;20291;-65
2022/11/13 14:23:26;;;;;;;37.58;22.60;;;;;;;;;;5074746;28;20247;-65
2022/11/13 14:25:54;;;;;;;41.63;23.73;;;;;;;;;;5075070;28;20189;-64
2022/11/13 14:28:22;;;;;;;37.95;21.98;;;;;;;;;;5074820;28;20291;-62
2022/11/13 14:30:53;;;;;;;36.53;22.45;;;;;;;;;;5075124;28;20207;-63
2022/11/13 14:33:23;;;;;;;35.70;21.85;;;;;;;;;;5076559;28;20235;-64